Time;durP1;ratioP1;P1;durP2;ratioP2;P2;SDS_P1;SDS_P2;PMS_P1;PMS_P2;Temp;Humidity;BMP_temperature;BMP_pressure;BME280_temperature;BME280_humidity;BME280_pressure;Samples;Min_cycle;Max_cycle;Signal;HPM_P1;HPM_P2
2020/12/14 00:01:30;;;;;;;3.85;1.38;;;;;;;3.78;84.63;98913.44;2308594;69;20335;-77
2020/12/14 00:04:32;;;;;;;4.24;1.20;;;;;;;3.83;84.29;98919.47;2308567;69;20366;-77
2020/12/14 00:07:34;;;;;;;3.80;1.40;;;;;;;3.88;84.01;98917.84;2308510;69;20306;-77
2020/12/14 00:10:36;;;;;;;5.19;1.70;;;;;;;3.90;84.18;98918.72;2308895;69;20297;-77
2020/12/14 00:13:37;;;;;;;1.99;1.29;;;;;;;3.95;83.79;98921.38;2308294;69;20309;-77
2020/12/14 00:16:40;;;;;;;1.75;1.33;;;;;;;4.00;83.57;98908.59;2309345;69;20333;-77
2020/12/14 00:19:42;;;;;;;2.91;1.40;;;;;;;4.01;83.62;98921.44;2310180;69;20293;-77
2020/12/14 00:22:43;;;;;;;4.03;1.27;;;;;;;4.08;82.41;98930.09;2311621;69;20281;-77
2020/12/14 00:25:45;;;;;;;1.61;1.50;;;;;;;4.13;81.49;98919.06;2311201;69;20289;-78
2020/12/14 00:28:48;;;;;;;2.65;1.27;;;;;;;4.16;80.97;98921.66;2311257;69;20301;-77
2020/12/14 00:31:53;;;;;;;1.96;1.36;;;;;;;4.19;80.67;98913.13;2309963;69;20603;-77
2020/12/14 00:34:55;;;;;;;3.63;1.77;;;;;;;4.21;80.71;98906.31;2300442;69;21192;-78
2020/12/14 00:37:57;;;;;;;3.36;1.30;;;;;;;4.24;80.47;98898.63;2301981;69;20312;-77
2020/12/14 00:40:59;;;;;;;2.80;1.64;;;;;;;4.24;80.34;98902.06;2302412;69;20793;-77
2020/12/14 00:44:00;;;;;;;3.25;1.41;;;;;;;4.27;80.23;98892.66;2302469;69;20617;-77
2020/12/14 00:47:02;;;;;;;4.20;1.24;;;;;;;4.26;80.17;98886.66;2301267;69;20322;-77
2020/12/14 00:50:04;;;;;;;2.26;1.30;;;;;;;4.25;79.98;98888.38;2303123;69;20290;-78
2020/12/14 00:53:05;;;;;;;1.84;0.91;;;;;;;4.28;80.08;98884.09;2301885;69;20312;-77
2020/12/14 00:56:07;;;;;;;4.66;1.17;;;;;;;4.29;79.63;98878.13;2303055;69;20295;-77
2020/12/14 00:59:09;;;;;;;4.71;1.63;;;;;;;4.32;79.07;98885.91;2301902;69;20298;-78
2020/12/14 01:02:11;;;;;;;3.94;1.50;;;;;;;4.34;79.13;98890.22;2302433;69;20718;-77
2020/12/14 01:05:12;;;;;;;1.90;1.19;;;;;;;4.36;78.92;98877.38;2302204;69;20293;-78
2020/12/14 01:08:14;;;;;;;2.76;1.14;;;;;;;4.38;78.86;98878.25;2302335;69;20295;-77
2020/12/14 01:11:15;;;;;;;2.24;1.01;;;;;;;4.40;78.51;98877.41;2301908;69;20286;-77
2020/12/14 01:14:17;;;;;;;3.42;1.71;;;;;;;4.43;77.82;98885.16;2303122;69;20302;-77
2020/12/14 01:17:19;;;;;;;4.50;0.90;;;;;;;4.45;77.76;98883.47;2302539;69;20306;-78
2020/12/14 01:20:20;;;;;;;1.38;0.94;;;;;;;4.49;77.62;98886.97;2302086;69;20323;-78
2020/12/14 01:23:22;;;;;;;1.80;0.90;;;;;;;4.51;77.43;98873.28;2301459;69;20609;-78
2020/12/14 01:26:24;;;;;;;3.46;1.00;;;;;;;4.52;77.94;98866.44;2302531;69;20312;-78
2020/12/14 01:29:25;;;;;;;2.13;1.02;;;;;;;4.51;77.84;98865.56;2301626;69;20279;-77
2020/12/14 01:32:27;;;;;;;2.36;0.80;;;;;;;4.51;78.01;98859.56;2301814;69;20778;-77
2020/12/14 01:35:29;;;;;;;1.65;0.93;;;;;;;4.51;78.44;98854.41;2302304;69;20493;-77
2020/12/14 01:38:31;;;;;;;2.30;1.21;;;;;;;4.47;77.56;98853.50;2302100;69;20322;-77
2020/12/14 01:41:32;;;;;;;4.04;1.19;;;;;;;4.47;77.27;98848.34;2302351;69;20274;-77
2020/12/14 01:44:34;;;;;;;1.95;0.79;;;;;;;4.48;77.07;98859.50;2302420;69;20393;-78
2020/12/14 01:47:43;;;;;;;2.30;0.81;;;;;;;4.48;76.87;98852.66;2302595;69;21244;-77
2020/12/14 01:50:45;;;;;;;2.80;0.80;;;;;;;4.49;76.87;98863.81;2301725;69;20421;-77
2020/12/14 01:53:49;;;;;;;1.59;0.90;;;;;;;4.50;76.94;98865.56;2302727;69;20914;-77
2020/12/14 01:56:51;;;;;;;3.15;1.14;;;;;;;4.52;77.40;98879.28;2302347;69;21361;-77
2020/12/14 01:59:56;;;;;;;1.69;0.80;;;;;;;4.53;76.96;98874.16;2302857;69;21142;-77
2020/12/14 02:02:58;;;;;;;1.90;0.90;;;;;;;4.55;76.75;98869.88;2304139;69;20278;-77
2020/12/14 02:05:59;;;;;;;4.59;1.10;;;;;;;4.55;77.24;98875.03;2302391;69;21078;-77
2020/12/14 02:09:01;;;;;;;1.20;0.79;;;;;;;4.57;77.64;98875.03;2302941;69;20335;-78
2020/12/14 02:12:02;;;;;;;2.79;1.00;;;;;;;4.59;77.95;98869.91;2302814;69;20287;-77
2020/12/14 02:15:05;;;;;;;2.84;0.90;;;;;;;4.60;78.00;98871.63;2302603;69;20274;-77
2020/12/14 02:18:06;;;;;;;1.50;0.70;;;;;;;4.61;78.19;98869.06;2301061;69;20298;-77
2020/12/14 02:21:08;;;;;;;1.77;1.00;;;;;;;4.60;77.62;98867.34;2302178;69;20316;-77
2020/12/14 02:24:14;;;;;;;2.65;0.80;;;;;;;4.62;77.76;98863.09;2301975;69;20359;-77
2020/12/14 02:27:15;;;;;;;1.76;0.75;;;;;;;4.67;77.86;98876.00;2303326;69;20804;-77
2020/12/14 02:30:17;;;;;;;2.06;0.93;;;;;;;4.68;78.28;98865.75;2301829;69;20340;-77
2020/12/14 02:33:19;;;;;;;1.10;0.89;;;;;;;4.68;77.89;98867.47;2303568;69;20319;-77
2020/12/14 02:36:24;;;;;;;3.40;1.15;;;;;;;4.68;77.48;98868.31;2302627;69;20315;-77
2020/12/14 02:39:26;;;;;;;2.84;1.00;;;;;;;4.69;77.33;98864.91;2302482;69;20314;-77
2020/12/14 02:42:28;;;;;;;1.99;0.80;;;;;;;4.71;77.57;98867.50;2303249;69;20290;-77
2020/12/14 02:45:29;;;;;;;2.78;0.99;;;;;;;4.71;77.31;98854.63;2303472;69;20298;-78
2020/12/14 02:48:31;;;;;;;0.96;0.70;;;;;;;4.71;77.14;98849.47;2303032;69;20318;-77
2020/12/14 02:51:32;;;;;;;3.30;1.09;;;;;;;4.71;77.31;98847.78;2302968;69;20306;-77
2020/12/14 02:54:35;;;;;;;3.31;1.21;;;;;;;4.69;77.63;98839.19;2302721;69;20481;-77
2020/12/14 02:57:36;;;;;;;2.29;0.84;;;;;;;4.71;76.77;98839.19;2302781;69;20298;-77
2020/12/14 03:00:38;;;;;;;2.72;0.90;;;;;;;4.70;76.56;98827.19;2302667;69;20763;-77
2020/12/14 03:03:40;;;;;;;2.45;0.90;;;;;;;4.66;76.65;98818.56;2304954;69;20306;-77
2020/12/14 03:06:45;;;;;;;1.94;0.82;;;;;;;4.61;76.90;98821.94;2305204;69;20759;-77
2020/12/14 03:09:47;;;;;;;2.13;1.00;;;;;;;4.57;76.68;98820.19;2304746;69;20481;-77
2020/12/14 03:12:49;;;;;;;3.58;0.89;;;;;;;4.53;76.85;98827.88;2304036;69;20336;-77
2020/12/14 03:15:51;;;;;;;2.13;0.84;;;;;;;4.50;77.23;98825.28;2306371;69;20371;-77
2020/12/14 03:18:52;;;;;;;1.23;0.69;;;;;;;4.50;77.24;98820.13;2304088;69;20816;-77
2020/12/14 03:21:54;;;;;;;2.13;0.99;;;;;;;4.49;77.08;98826.13;2304950;69;20290;-77
2020/12/14 03:24:56;;;;;;;2.22;0.98;;;;;;;4.50;77.04;98819.28;2305590;69;20299;-78
2020/12/14 03:27:57;;;;;;;2.51;1.01;;;;;;;4.48;77.27;98816.66;2303285;69;20282;-77
2020/12/14 03:30:59;;;;;;;1.79;0.90;;;;;;;4.50;77.33;98822.72;2302969;69;20332;-77
2020/12/14 03:34:01;;;;;;;2.21;1.04;;;;;;;4.52;77.54;98822.72;2304394;69;20290;-77
2020/12/14 03:37:02;;;;;;;2.81;1.20;;;;;;;4.53;77.36;98824.44;2304156;69;20356;-77
2020/12/14 03:40:04;;;;;;;2.63;1.01;;;;;;;4.50;77.30;98817.56;2303995;69;20826;-78
2020/12/14 03:43:06;;;;;;;1.71;0.69;;;;;;;4.47;77.37;98817.50;2304432;69;20286;-76
2020/12/14 03:46:20;;;;;;;1.52;1.00;;;;;;;4.42;77.42;98824.31;2303504;69;20607;-77
2020/12/14 03:49:22;;;;;;;1.16;0.71;;;;;;;4.40;77.40;98830.28;2304697;69;20409;-77
2020/12/14 03:52:25;;;;;;;1.39;0.75;;;;;;;4.40;77.74;98825.16;2305488;69;20316;-77
2020/12/14 03:55:26;;;;;;;1.77;0.91;;;;;;;4.44;77.78;98837.19;2305939;69;20747;-77
2020/12/14 03:58:28;;;;;;;3.70;1.04;;;;;;;4.46;77.91;98830.34;2305590;69;20355;-77
2020/12/14 04:01:30;;;;;;;1.94;0.89;;;;;;;4.48;77.92;98834.66;2305244;69;20564;-77
2020/12/14 04:04:32;;;;;;;1.29;0.70;;;;;;;4.45;78.32;98826.06;2304293;69;20360;-77
2020/12/14 04:07:33;;;;;;;1.64;1.01;;;;;;;4.43;78.09;98832.88;2303984;69;20336;-77
2020/12/14 04:10:36;;;;;;;2.44;0.90;;;;;;;4.40;78.05;98833.72;2303823;69;20318;-77
2020/12/14 04:13:37;;;;;;;1.27;0.99;;;;;;;4.37;77.87;98832.84;2302661;69;20279;-77
2020/12/14 04:16:42;;;;;;;4.03;1.02;;;;;;;4.35;77.93;98831.97;2304673;69;20286;-76
2020/12/14 04:19:43;;;;;;;1.15;0.70;;;;;;;4.34;78.05;98836.25;2304982;69;20447;-78
2020/12/14 04:22:47;;;;;;;2.67;1.55;;;;;;;4.34;78.10;98838.81;2303615;69;20359;-77
2020/12/14 04:25:49;;;;;;;1.13;0.74;;;;;;;4.32;78.61;98839.63;2304559;69;20279;-77
2020/12/14 04:28:51;;;;;;;1.55;0.71;;;;;;;4.31;78.63;98845.59;2303642;69;21183;-77
2020/12/14 04:31:53;;;;;;;1.74;0.95;;;;;;;4.32;79.04;98840.50;2303602;69;20322;-77
2020/12/14 04:34:55;;;;;;;1.45;0.77;;;;;;;4.37;79.08;98838.84;2303910;69;20421;-77
2020/12/14 04:37:56;;;;;;;2.33;0.80;;;;;;;4.41;78.94;98832.88;2303644;69;20352;-77
2020/12/14 04:41:05;;;;;;;1.51;0.91;;;;;;;4.45;78.96;98832.06;2303205;69;20320;-77
2020/12/14 04:44:08;;;;;;;1.50;0.75;;;;;;;4.47;78.88;98825.22;2304600;69;21065;-77
2020/12/14 04:47:12;;;;;;;2.95;0.90;;;;;;;4.49;78.75;98825.28;2308510;69;20335;-77
2020/12/14 04:50:15;;;;;;;2.05;0.80;;;;;;;4.52;79.00;98826.16;2304594;69;20312;-77
2020/12/14 04:53:17;;;;;;;2.30;0.90;;;;;;;4.54;79.35;98832.19;2306176;69;20296;-77
2020/12/14 04:56:23;;;;;;;2.25;0.86;;;;;;;4.55;79.40;98820.19;2305748;69;20283;-76
2020/12/14 04:59:24;;;;;;;2.42;0.80;;;;;;;4.57;79.75;98826.19;2305724;69;20432;-77
2020/12/14 05:02:26;;;;;;;2.50;0.73;;;;;;;4.61;79.24;98820.22;2305764;69;20308;-77
2020/12/14 05:05:28;;;;;;;1.76;1.02;;;;;;;4.64;78.99;98817.69;2305687;69;20311;-77
2020/12/14 05:08:29;;;;;;;1.40;0.65;;;;;;;4.67;78.61;98824.56;2306141;69;20275;-76
2020/12/14 05:11:35;;;;;;;1.00;0.64;;;;;;;4.70;78.37;98817.75;2306195;69;20316;-77
2020/12/14 05:14:36;;;;;;;2.66;0.80;;;;;;;4.74;78.54;98816.94;2306238;69;20304;-77
2020/12/14 05:17:38;;;;;;;1.08;0.68;;;;;;;4.77;78.78;98811.81;2305708;69;20295;-77
2020/12/14 05:20:54;;;;;;;2.35;0.80;;;;;;;4.80;78.53;98819.56;2305187;69;20306;-77
2020/12/14 05:24:02;;;;;;;0.75;0.50;;;;;;;4.84;78.39;98823.88;2306030;69;20295;-77
2020/12/14 05:27:03;;;;;;;2.04;0.60;;;;;;;4.87;78.11;98822.22;2307250;69;20655;-77
2020/12/14 05:30:14;;;;;;;2.47;0.74;;;;;;;4.88;77.95;98819.66;2303029;69;20291;-77
2020/12/14 05:33:20;;;;;;;2.04;0.70;;;;;;;4.94;77.28;98817.13;2302662;69;20362;-77
2020/12/14 05:36:21;;;;;;;3.60;0.64;;;;;;;4.98;77.35;98818.88;2302498;69;21461;-76
2020/12/14 05:39:27;;;;;;;2.61;0.60;;;;;;;4.98;78.14;98815.44;2302422;69;20900;-77
2020/12/14 05:42:40;;;;;;;2.01;0.70;;;;;;;4.96;78.21;98810.28;2305019;69;20304;-77
2020/12/14 05:45:43;;;;;;;0.80;0.50;;;;;;;4.94;78.01;98818.81;2303706;69;20348;-76
2020/12/14 05:48:45;;;;;;;3.49;0.86;;;;;;;4.89;77.43;98815.38;2302565;69;20298;-77
2020/12/14 05:51:47;;;;;;;2.42;0.57;;;;;;;4.81;77.07;98812.72;2303855;69;20294;-77
2020/12/14 05:54:51;;;;;;;1.11;0.45;;;;;;;4.74;76.99;98809.22;2302859;69;20409;-77
2020/12/14 05:57:58;;;;;;;0.73;0.47;;;;;;;4.64;77.22;98817.69;2303916;69;20462;-77
2020/12/14 06:01:01;;;;;;;2.96;0.65;;;;;;;4.57;77.84;98820.19;2303593;69;20334;-76
2020/12/14 06:04:03;;;;;;;5.68;0.89;;;;;;;4.50;78.09;98815.00;2303336;69;20298;-77
2020/12/14 06:07:07;;;;;;;2.11;1.14;;;;;;;4.42;78.36;98813.19;2304719;69;20455;-77
2020/12/14 06:10:13;;;;;;;1.38;0.60;;;;;;;4.37;78.84;98820.84;2304237;69;20290;-77
2020/12/14 06:13:22;;;;;;;1.89;0.50;;;;;;;4.43;78.94;98820.91;2304300;69;20814;-77
2020/12/14 06:16:30;;;;;;;2.56;0.60;;;;;;;4.43;79.75;98820.03;2303537;69;20153;-77
2020/12/14 06:19:32;;;;;;;1.13;0.60;;;;;;;4.40;80.18;98809.72;2303352;69;20894;-77
2020/12/14 06:22:34;;;;;;;3.64;0.70;;;;;;;4.42;80.06;98808.03;2303348;69;20320;-76
2020/12/14 06:25:40;;;;;;;1.08;0.60;;;;;;;4.39;80.15;98814.00;2303587;69;20452;-77
2020/12/14 06:28:52;;;;;;;2.26;0.55;;;;;;;4.38;79.83;98819.13;2303264;69;20380;-77
2020/12/14 06:31:53;;;;;;;0.77;0.50;;;;;;;4.38;79.92;98821.72;2303912;69;20338;-78
2020/12/14 06:34:55;;;;;;;0.69;0.52;;;;;;;4.36;79.89;98833.69;2303201;69;20314;-77
2020/12/14 06:37:57;;;;;;;0.76;0.55;;;;;;;4.36;79.67;98825.97;2303117;69;20801;-77
2020/12/14 06:40:59;;;;;;;3.10;0.70;;;;;;;4.39;79.29;98831.13;2303379;69;20294;-77
2020/12/14 06:44:13;;;;;;;1.92;0.64;;;;;;;4.44;79.69;98829.47;2303970;69;20290;-75
2020/12/14 06:47:16;;;;;;;1.21;0.60;;;;;;;4.42;79.71;98833.75;2303839;69;20302;-76
2020/12/14 06:50:43;;;;;;;0.70;0.60;;;;;;;4.44;79.33;98835.47;2303191;69;20312;-75
2020/12/14 06:53:52;;;;;;;1.55;0.85;;;;;;;4.50;78.30;98840.69;2304163;69;20286;-75
2020/12/14 06:56:54;;;;;;;;;;;;;;;4.55;77.63;98848.47;2303212;69;20318;-75
2020/12/14 06:59:55;;;;;;;0.50;0.50;;;;;;;4.61;77.68;98847.66;2304409;69;20037;-75
2020/12/14 07:02:57;;;;;;;0.65;0.50;;;;;;;4.60;78.08;98841.66;2303884;69;20527;-74
2020/12/14 07:06:00;;;;;;;1.59;0.50;;;;;;;4.64;77.62;98852.81;2303571;69;20339;-76
2020/12/14 07:09:28;;;;;;;1.73;0.55;;;;;;;4.68;77.48;98844.31;2304140;69;20679;-76
2020/12/14 07:12:30;;;;;;;1.90;0.60;;;;;;;4.64;78.24;98855.38;2303941;69;20992;-74
2020/12/14 07:15:33;;;;;;;2.63;1.55;;;;;;;4.60;77.81;98867.34;2304573;69;20765;-76
2020/12/14 07:18:37;;;;;;;1.99;0.60;;;;;;;4.61;77.18;98873.34;2308281;69;20298;-78
2020/12/14 07:21:40;;;;;;;1.69;0.56;;;;;;;4.60;77.63;98879.34;2309036;69;20332;-75
2020/12/14 07:24:42;;;;;;;1.05;0.60;;;;;;;4.53;77.41;98873.28;2306731;69;20655;-78
2020/12/14 07:27:44;;;;;;;1.08;0.57;;;;;;;4.51;77.26;98875.84;2306188;69;20771;-76
2020/12/14 07:30:46;;;;;;;1.73;0.70;;;;;;;4.48;76.51;98875.78;2306396;69;20294;-77
2020/12/14 07:33:56;;;;;;;2.46;0.73;;;;;;;4.50;77.06;98871.56;2304623;69;20294;-78
2020/12/14 07:36:58;;;;;;;1.05;0.90;;;;;;;4.47;76.83;98881.78;2309455;69;20297;-76
2020/12/14 07:40:00;;;;;;;1.65;0.60;;;;;;;4.44;76.20;98876.59;2303785;69;20312;-76
2020/12/14 07:43:02;;;;;;;1.63;0.63;;;;;;;4.42;76.06;98873.16;2303402;69;20343;-76
2020/12/14 07:46:33;;;;;;;1.21;0.70;;;;;;;4.39;76.88;98878.25;2304424;69;20372;-78
2020/12/14 07:49:35;;;;;;;3.74;0.75;;;;;;;4.34;76.81;98872.22;2304797;69;20939;-79
2020/12/14 07:52:37;;;;;;;7.16;0.76;;;;;;;4.34;77.08;98867.06;2304566;69;20318;-76
2020/12/14 07:55:39;;;;;;;1.56;0.80;;;;;;;4.28;77.24;98873.81;2305523;69;20298;-78
2020/12/14 07:58:45;;;;;;;1.84;0.74;;;;;;;4.23;77.67;98877.22;2302452;69;20659;-76
2020/12/14 08:01:48;;;;;;;1.16;0.59;;;;;;;4.24;77.34;98878.06;2302358;69;20344;-76
2020/12/14 08:04:49;;;;;;;2.15;0.88;;;;;;;4.28;77.30;98878.97;2304935;69;20311;-76
2020/12/14 08:08:03;;;;;;;0.94;0.80;;;;;;;4.23;77.36;98871.22;2314663;69;20281;-74
2020/12/14 08:11:05;;;;;;;2.00;0.89;;;;;;;4.22;77.56;98879.75;2305959;69;20368;-78
2020/12/14 08:14:08;;;;;;;1.56;0.74;;;;;;;4.29;77.47;98885.84;2304098;69;20299;-74
2020/12/14 08:17:11;;;;;;;26.69;13.39;;;;;;;4.40;76.95;98881.69;2312789;69;20290;-81
2020/12/14 08:20:36;;;;;;;28.44;14.50;;;;;;;4.49;77.34;98885.25;2305481;69;20770;-77
2020/12/14 08:23:37;;;;;;;9.20;5.68;;;;;;;4.61;77.37;98887.06;2304154;69;20294;-76
2020/12/14 08:26:41;;;;;;;7.11;5.11;;;;;;;4.69;76.73;98889.75;2303238;69;20294;-77
2020/12/14 08:30:04;;;;;;;7.11;3.97;;;;;;;4.76;76.92;98889.81;2304979;69;20811;-77
2020/12/14 08:33:14;;;;;;;3.53;2.51;;;;;;;4.89;77.68;98875.38;2304075;69;20663;-76
2020/12/14 08:36:16;;;;;;;2.50;1.83;;;;;;;5.18;77.30;98878.22;2305428;69;20316;-77
2020/12/14 08:39:18;;;;;;;2.01;1.48;;;;;;;5.45;76.59;98880.16;2306262;69;20306;-77
2020/12/14 08:42:21;;;;;;;1.46;1.36;;;;;;;5.69;75.91;98872.59;2306812;69;20317;-79
2020/12/14 08:45:25;;;;;;;2.76;1.29;;;;;;;5.96;76.09;98871.09;2305207;69;20461;-75
2020/12/14 08:48:30;;;;;;;1.79;1.31;;;;;;;6.28;74.49;98873.81;2304289;69;20320;-74
2020/12/14 08:51:33;;;;;;;2.38;1.11;;;;;;;6.54;73.30;98873.94;2306599;69;20294;-75
2020/12/14 08:54:35;;;;;;;2.15;1.65;;;;;;;6.65;71.05;98874.84;2305674;69;20316;-75
2020/12/14 08:57:36;;;;;;;1.52;0.80;;;;;;;6.69;70.74;98888.59;2305931;69;20291;-76
2020/12/14 09:00:38;;;;;;;1.54;1.44;;;;;;;6.65;69.48;98891.16;2304330;69;20320;-75
2020/12/14 09:03:48;;;;;;;3.06;2.45;;;;;;;6.61;69.89;98904.88;2304391;69;20335;-75
2020/12/14 09:06:50;;;;;;;1.80;1.26;;;;;;;6.54;69.70;98905.75;2305764;69;20279;-75
2020/12/14 09:09:52;;;;;;;2.14;1.05;;;;;;;6.57;69.22;98910.91;2305938;69;21321;-75
2020/12/14 09:13:04;;;;;;;2.51;1.10;;;;;;;6.60;68.99;98918.66;2305575;69;20330;-76
2020/12/14 09:16:10;;;;;;;1.50;0.80;;;;;;;6.65;68.96;98916.97;2305500;69;20314;-77
2020/12/14 09:19:21;;;;;;;1.60;0.84;;;;;;;6.74;69.67;98921.28;2304835;69;20404;-76
2020/12/14 09:22:27;;;;;;;1.29;0.82;;;;;;;6.81;70.77;98924.72;2305885;69;20634;-77
2020/12/14 09:25:29;;;;;;;1.75;0.80;;;;;;;6.88;70.25;98921.34;2305121;69;20747;-77
2020/12/14 09:28:34;;;;;;;1.80;1.13;;;;;;;6.94;70.18;98926.50;2305245;69;20302;-76
2020/12/14 09:31:35;;;;;;;0.81;0.68;;;;;;;7.00;69.52;98938.53;2305865;69;20312;-76
2020/12/14 09:34:38;;;;;;;0.85;0.82;;;;;;;7.03;68.83;98931.69;2304464;69;20310;-76
2020/12/14 09:37:40;;;;;;;2.74;1.33;;;;;;;7.10;68.59;98925.69;2305104;69;20383;-76
2020/12/14 09:40:42;;;;;;;1.58;1.17;;;;;;;7.20;68.55;98929.16;2305538;69;20324;-77
2020/12/14 09:43:43;;;;;;;2.15;1.65;;;;;;;7.30;67.65;98933.44;2304776;69;20385;-77
2020/12/14 09:46:45;;;;;;;1.75;0.80;;;;;;;7.40;67.10;98940.38;2304658;69;20313;-76
2020/12/14 09:49:47;;;;;;;0.94;0.80;;;;;;;7.50;67.76;98926.56;2305470;69;20290;-77
2020/12/14 09:52:50;;;;;;;1.19;0.60;;;;;;;7.66;68.20;98929.16;2304055;69;20394;-76
2020/12/14 09:55:51;;;;;;;1.20;0.70;;;;;;;7.76;68.15;98929.19;2304276;69;20872;-77
2020/12/14 09:58:53;;;;;;;0.70;0.60;;;;;;;7.88;67.54;98923.09;2305915;69;20663;-76
2020/12/14 10:01:55;;;;;;;1.02;0.59;;;;;;;8.00;67.60;98919.66;2303805;69;20278;-77
2020/12/14 10:04:57;;;;;;;2.39;1.30;;;;;;;8.04;66.98;98924.81;2305692;69;20415;-77
2020/12/14 10:07:59;;;;;;;3.04;0.61;;;;;;;8.11;66.54;98926.53;2307032;69;20367;-75
2020/12/14 10:11:02;;;;;;;1.92;0.98;;;;;;;8.10;66.49;98927.41;2305595;69;20351;-75
2020/12/14 10:14:03;;;;;;;1.86;0.80;;;;;;;8.14;66.28;98925.66;2305063;69;20348;-76
2020/12/14 10:17:05;;;;;;;2.71;0.95;;;;;;;8.13;65.81;98919.63;2303232;69;20282;-76
2020/12/14 10:20:07;;;;;;;2.84;1.13;;;;;;;8.08;64.97;98934.31;2305451;69;20440;-76
2020/12/14 10:23:09;;;;;;;1.76;0.66;;;;;;;8.12;65.62;98933.44;2303480;69;20294;-77
2020/12/14 10:26:14;;;;;;;1.54;0.75;;;;;;;8.18;65.95;98923.06;2306024;69;20308;-77
2020/12/14 10:29:17;;;;;;;1.08;0.70;;;;;;;8.27;66.50;98916.16;2304479;69;20426;-78
2020/12/14 10:32:19;;;;;;;1.27;0.85;;;;;;;8.34;66.85;98913.56;2306119;69;20298;-76
2020/12/14 10:35:23;;;;;;;2.31;0.70;;;;;;;8.46;66.79;98902.34;2304506;69;20294;-76
2020/12/14 10:38:26;;;;;;;1.17;0.60;;;;;;;8.61;65.65;98904.84;2304261;69;20287;-76
2020/12/14 10:41:28;;;;;;;0.96;0.60;;;;;;;8.72;65.62;98897.88;2305863;69;20328;-76
2020/12/14 10:44:30;;;;;;;2.24;0.85;;;;;;;8.84;65.29;98903.88;2304553;69;20385;-76
2020/12/14 10:47:31;;;;;;;1.24;0.60;;;;;;;8.85;64.64;98903.00;2304408;69;20772;-75
2020/12/14 10:50:42;;;;;;;1.33;0.70;;;;;;;8.81;64.07;98896.13;2304715;69;20319;-75
2020/12/14 10:53:44;;;;;;;2.54;0.80;;;;;;;8.85;64.38;98900.44;2304136;69;20443;-75
2020/12/14 10:56:46;;;;;;;2.01;0.61;;;;;;;8.85;64.03;98898.69;2305822;69;20402;-75
2020/12/14 10:59:48;;;;;;;0.96;0.71;;;;;;;8.83;64.79;98895.25;2305769;69;20323;-76
2020/12/14 11:02:49;;;;;;;1.34;0.80;;;;;;;8.76;65.16;98891.81;2305942;69;20413;-77
2020/12/14 11:05:53;;;;;;;2.14;0.69;;;;;;;8.71;65.69;98893.59;2305434;69;20436;-76
2020/12/14 11:08:54;;;;;;;1.40;0.74;;;;;;;8.73;65.99;98896.16;2304992;69;20338;-76
2020/12/14 11:11:56;;;;;;;1.08;0.61;;;;;;;8.73;65.67;98885.81;2306889;69;20329;-77
2020/12/14 11:14:57;;;;;;;1.29;0.50;;;;;;;8.74;64.58;98878.03;2302645;69;20318;-78
2020/12/14 11:17:59;;;;;;;1.90;0.85;;;;;;;8.79;63.78;98878.84;2303888;69;20316;-78
2020/12/14 11:21:01;;;;;;;2.25;0.95;;;;;;;8.90;63.32;98877.94;2305899;69;20393;-76
2020/12/14 11:24:04;;;;;;;1.02;0.60;;;;;;;8.99;64.61;98867.56;2305895;69;20307;-76
2020/12/14 11:27:07;;;;;;;1.91;0.50;;;;;;;9.07;64.22;98863.16;2305146;69;20282;-76
2020/12/14 11:30:08;;;;;;;0.81;0.59;;;;;;;9.21;63.27;98856.16;2309626;69;20290;-77
2020/12/14 11:33:10;;;;;;;0.95;0.63;;;;;;;9.37;63.24;98859.50;2303982;69;20302;-76
2020/12/14 11:36:12;;;;;;;0.96;0.50;;;;;;;9.49;63.26;98859.38;2306663;69;20290;-76
2020/12/14 11:39:14;;;;;;;0.68;0.46;;;;;;;9.55;61.17;98851.56;2305039;69;21302;-77
2020/12/14 11:42:16;;;;;;;2.84;0.80;;;;;;;9.64;58.90;98848.88;2304966;69;20309;-77
2020/12/14 11:45:17;;;;;;;2.11;0.60;;;;;;;9.74;59.52;98843.63;2303184;69;20797;-76
2020/12/14 11:48:19;;;;;;;1.59;1.05;;;;;;;9.77;60.16;98844.44;2305680;69;20324;-78
2020/12/14 11:51:21;;;;;;;1.06;0.50;;;;;;;9.81;58.50;98850.44;2305585;69;20799;-76
2020/12/14 11:54:22;;;;;;;0.88;0.56;;;;;;;9.83;58.93;98848.69;2305700;69;20343;-77
2020/12/14 11:57:24;;;;;;;2.76;0.54;;;;;;;9.71;60.05;98841.91;2305972;69;20336;-77
2020/12/14 12:00:25;;;;;;;0.41;0.40;;;;;;;9.56;58.64;98842.91;2304561;69;21049;-75
2020/12/14 12:03:27;;;;;;;0.50;0.40;;;;;;;9.49;58.47;98841.22;2303042;69;20294;-77
2020/12/14 12:06:29;;;;;;;0.88;0.44;;;;;;;9.51;59.76;98847.25;2303742;69;20330;-75
2020/12/14 12:09:34;;;;;;;1.04;0.50;;;;;;;9.52;59.07;98840.38;2310855;69;20282;-76
2020/12/14 12:12:37;;;;;;;0.76;0.56;;;;;;;9.59;58.23;98826.47;2304868;69;20783;-76
2020/12/14 12:15:39;;;;;;;1.70;0.47;;;;;;;9.61;59.44;98835.94;2304457;69;20278;-76
2020/12/14 12:18:42;;;;;;;1.77;0.70;;;;;;;9.59;58.60;98827.31;2304728;69;20308;-77
2020/12/14 12:21:50;;;;;;;0.50;0.50;;;;;;;9.66;57.95;98830.72;2306392;69;20372;-76
2020/12/14 12:24:52;;;;;;;0.64;0.55;;;;;;;9.72;56.99;98828.06;2303781;69;20290;-76
2020/12/14 12:27:54;;;;;;;1.09;0.70;;;;;;;9.79;57.01;98823.69;2304141;69;20326;-76
2020/12/14 12:30:55;;;;;;;0.80;0.60;;;;;;;9.82;56.57;98823.63;2305044;69;20724;-77
2020/12/14 12:33:57;;;;;;;0.71;0.46;;;;;;;9.84;55.61;98825.34;2304289;69;20298;-75
2020/12/14 12:36:59;;;;;;;0.56;0.40;;;;;;;9.81;56.74;98820.19;2304679;69;20290;-76
2020/12/14 12:40:06;;;;;;;0.80;0.50;;;;;;;9.82;57.30;98810.66;2302907;69;20359;-76
2020/12/14 12:43:07;;;;;;;3.58;0.96;;;;;;;9.84;56.39;98811.50;2305725;69;20771;-76
2020/12/14 12:46:09;;;;;;;0.71;0.50;;;;;;;9.85;57.40;98801.13;2304220;69;20343;-76
2020/12/14 12:49:11;;;;;;;0.55;0.55;;;;;;;9.86;57.02;98797.66;2304488;69;20311;-76
2020/12/14 12:52:13;;;;;;;0.75;0.34;;;;;;;9.91;56.12;98800.22;2304283;69;20291;-77
2020/12/14 12:55:15;;;;;;;1.63;0.50;;;;;;;9.93;55.87;98806.25;2303585;69;20336;-76
2020/12/14 12:58:17;;;;;;;0.63;0.40;;;;;;;9.95;55.68;98807.94;2304895;69;20314;-76
2020/12/14 13:01:19;;;;;;;0.69;0.57;;;;;;;9.98;56.14;98797.53;2305771;69;20341;-76
2020/12/14 13:04:21;;;;;;;1.90;0.46;;;;;;;10.00;54.56;98806.13;2305212;69;20762;-77
2020/12/14 13:07:22;;;;;;;0.75;0.41;;;;;;;9.98;55.88;98810.50;2305364;69;20177;-76
2020/12/14 13:10:24;;;;;;;1.41;0.40;;;;;;;9.98;56.39;98801.84;2304081;69;20550;-76
2020/12/14 13:13:26;;;;;;;0.70;0.50;;;;;;;10.02;56.28;98794.88;2303524;69;20652;-77
2020/12/14 13:16:28;;;;;;;2.44;1.83;;;;;;;9.97;55.04;98795.81;2304433;69;20137;-77
2020/12/14 13:19:30;;;;;;;1.70;1.00;;;;;;;9.97;54.34;98800.13;2305078;69;20278;-77
2020/12/14 13:22:31;;;;;;;4.55;3.46;;;;;;;9.99;56.69;98796.66;2304517;69;20298;-77
2020/12/14 13:25:33;;;;;;;2.53;1.20;;;;;;;10.05;56.44;98789.66;2305037;69;20214;-77
2020/12/14 13:28:35;;;;;;;0.88;0.70;;;;;;;10.12;55.60;98787.00;2305824;69;20287;-77
2020/12/14 13:31:36;;;;;;;2.03;0.60;;;;;;;10.17;55.72;98777.41;2303773;69;20760;-76
2020/12/14 13:34:38;;;;;;;1.04;0.60;;;;;;;10.21;56.10;98788.63;2303865;69;20352;-77
2020/12/14 13:37:43;;;;;;;1.48;0.50;;;;;;;10.26;55.46;98787.72;2304645;69;20307;-78
2020/12/14 13:40:45;;;;;;;2.89;0.69;;;;;;;10.28;56.27;98790.28;2306122;69;20306;-77
2020/12/14 13:43:48;;;;;;;1.01;0.60;;;;;;;10.30;54.59;98785.94;2306176;69;20302;-77
2020/12/14 13:48:01;;;;;;;1.00;0.50;;;;;;;10.45;54.58;98787.47;2068765;77;21015;-76
2020/12/14 13:51:04;;;;;;;0.66;0.45;;;;;;;10.36;55.67;98783.25;2063743;78;20496;-76
2020/12/14 13:54:05;;;;;;;1.46;0.40;;;;;;;10.38;55.17;98778.03;2063526;78;20362;-77
2020/12/14 13:57:07;;;;;;;0.46;0.40;;;;;;;10.38;54.43;98772.84;2062646;78;20780;-76
2020/12/14 14:00:08;;;;;;;1.77;0.45;;;;;;;10.35;54.73;98773.75;2063869;78;20315;-76
2020/12/14 14:03:11;;;;;;;1.41;0.52;;;;;;;10.29;54.55;98771.25;2063351;78;20398;-76
2020/12/14 14:06:13;;;;;;;0.52;0.39;;;;;;;10.25;55.69;98778.22;2063288;78;20637;-76
2020/12/14 14:09:15;;;;;;;0.93;0.40;;;;;;;10.18;56.27;98783.44;2064625;78;20211;-76
2020/12/14 14:12:17;;;;;;;0.40;0.40;;;;;;;10.10;54.91;98780.09;2064970;78;20331;-76
2020/12/14 14:15:19;;;;;;;1.14;0.60;;;;;;;10.07;55.27;98795.72;2063981;78;20336;-77
2020/12/14 14:18:21;;;;;;;1.27;0.45;;;;;;;10.02;55.62;98794.88;2063459;78;20341;-76
2020/12/14 14:21:22;;;;;;;1.09;0.56;;;;;;;9.98;56.01;98789.75;2063641;78;20189;-77
2020/12/14 14:24:24;;;;;;;1.27;0.64;;;;;;;9.98;56.43;98781.97;2063726;78;20162;-82
2020/12/14 14:27:26;;;;;;;0.65;0.50;;;;;;;9.98;57.62;98791.47;2063297;78;20353;-76
2020/12/14 14:30:28;;;;;;;2.81;0.60;;;;;;;9.95;58.06;98782.00;2064288;78;20482;-76
2020/12/14 14:33:30;;;;;;;1.39;0.43;;;;;;;9.94;58.55;98787.22;2064080;78;20827;-77